To NAV CANADA Home Page Login to a new session Search on AWWS site Disclaimer Vers la page française équivalente Tips FAQ What's new on the site To the Forecasts and Observations / NOTAM section To "File a Flight Plan" website Publications and other links Update of the User's profile FIC Telephone Numbers My Weather Data Folder Route Weather Data Regional Weather Data Local Weather Data To the Forecasts and Observations / NOTAM section
Request Generated 03/19/2019 at 23:16:04 UTC . Weather information available at that time is displayed.

METAR/TAF

WAWA/ON    

METAR CYXZ 192300Z 24003KT 210V270 15SM BKN077 00/M02 A3007 RMK AC6 SLP201=
METAR CYXZ 192200Z 23007KT 15SM FEW030 BKN093 BKN200 01/M02 A3009 RMK CU1AC4CS1 SLP209=
METAR CYXZ 192100Z CCA 26005KT 210V300 15SM FEW030 SCT084 SCT094 02/M02 A3012 RMK CU2AC1AC1 SLP219=
METAR CYXZ 192100Z 26005KT 210V300 15SM FEW030 SCT084 SCT094 02/M02 A3012 RMK CU2AC1AC1 SLP219=

TAF CYXZ 191946Z 1920/1924 22008KT P6SM FEW008 SCT080
RMK NXT FCST WILL BE ISSUED AT 201245Z=
Your time UTC time
Weather data provided by Environment Canada and NAV CANADA